createdAt,value
2023-05-24T00:00:55.892Z,8.82
2023-05-24T00:03:23.564Z,7.82
2023-05-24T00:05:52.536Z,6.47
2023-05-24T00:08:19.643Z,6.30
2023-05-24T00:10:46.737Z,4.55
2023-05-24T00:13:15.377Z,3.90
2023-05-24T00:15:42.590Z,2.40
2023-05-24T00:18:09.734Z,2.20
2023-05-24T00:20:36.945Z,2.35
2023-05-24T00:23:04.153Z,2.25
2023-05-24T00:25:31.281Z,1.60
2023-05-24T00:27:58.418Z,1.73
2023-05-24T00:30:27.189Z,1.80
2023-05-24T00:32:55.877Z,1.83
2023-05-24T00:35:23.744Z,1.52
2023-05-24T00:37:51.295Z,1.40
2023-05-24T00:40:18.444Z,1.55
2023-05-24T00:42:45.593Z,1.40
2023-05-24T00:45:12.937Z,1.27
2023-05-24T00:47:41.053Z,1.20
2023-05-24T00:50:09.958Z,1.05
2023-05-24T00:52:37.740Z,1.02
2023-05-24T00:55:05.915Z,1.10
2023-05-24T00:57:33.788Z,1.10
2023-05-24T01:00:01.022Z,1.20
2023-05-24T01:02:28.376Z,1.10
2023-05-24T01:04:56.379Z,1.05
2023-05-24T01:07:52.692Z,0.90
2023-05-24T01:10:55.241Z,1.20
2023-05-24T01:14:04.867Z,0.90
2023-05-24T01:16:56.620Z,1.20
2023-05-24T01:20:12.001Z,0.90
2023-05-24T01:22:58.591Z,1.17
2023-05-24T01:25:47.769Z,1.02
2023-05-24T01:28:41.299Z,1.25
2023-05-24T01:31:08.714Z,1.30
2023-05-24T01:33:35.971Z,1.30
2023-05-24T01:36:03.122Z,1.70
2023-05-24T01:38:30.258Z,1.33
2023-05-24T01:41:05.812Z,1.73
2023-05-24T01:43:41.604Z,1.70
2023-05-24T01:46:36.522Z,1.90
2023-05-24T01:49:09.337Z,1.48
2023-05-24T01:51:53.831Z,1.92
2023-05-24T01:54:26.168Z,2.25
2023-05-24T01:56:56.236Z,1.98
2023-05-24T01:59:26.262Z,2.50
2023-05-24T02:01:54.014Z,2.38
2023-05-24T02:04:21.481Z,2.80
2023-05-24T02:06:48.600Z,2.83
2023-05-24T02:09:16.856Z,3.70
2023-05-24T02:11:44.012Z,3.08
2023-05-24T02:14:11.389Z,3.13
2023-05-24T02:16:42.897Z,2.58
2023-05-24T02:19:10.166Z,2.55
2023-05-24T02:21:37.277Z,2.42
2023-05-24T02:24:04.760Z,2.00
2023-05-24T02:26:31.874Z,2.08
2023-05-24T02:28:58.959Z,2.35
2023-05-24T02:31:28.878Z,1.90
2023-05-24T02:33:57.136Z,1.50
2023-05-24T02:36:24.802Z,2.67
2023-05-24T02:38:52.044Z,2.92
2023-05-24T02:41:19.602Z,1.70
2023-05-24T02:43:47.728Z,1.77
2023-05-24T02:46:15.451Z,1.70
2023-05-24T02:48:42.583Z,3.25
2023-05-24T02:51:09.723Z,1.80
2023-05-24T02:53:36.839Z,2.00
2023-05-24T02:56:04.032Z,2.05
2023-05-24T02:58:32.498Z,1.70
2023-05-24T03:00:59.709Z,1.85
2023-05-24T03:03:27.286Z,2.47
2023-05-24T03:05:54.578Z,2.08
2023-05-24T03:08:21.667Z,2.13
2023-05-24T03:10:48.937Z,2.85
2023-05-24T03:13:16.051Z,2.80
2023-05-24T03:15:43.223Z,2.63
2023-05-24T03:18:10.440Z,1.92
2023-05-24T03:20:39.615Z,1.90
2023-05-24T03:23:09.736Z,2.88
2023-05-24T03:25:36.877Z,2.45
2023-05-24T03:28:04.563Z,2.00
2023-05-24T03:30:33.032Z,2.33
2023-05-24T03:33:01.463Z,2.42
2023-05-24T03:35:29.878Z,2.42
2023-05-24T03:37:57.276Z,2.30
2023-05-24T03:40:25.968Z,2.58
2023-05-24T03:42:58.552Z,2.28
2023-05-24T03:45:43.526Z,2.67
2023-05-24T03:48:10.663Z,2.25
2023-05-24T03:50:37.738Z,2.30
2023-05-24T03:53:04.982Z,2.53
2023-05-24T03:55:32.044Z,2.30
2023-05-24T03:57:59.207Z,2.88
2023-05-24T04:00:26.328Z,3.03
2023-05-24T04:02:56.135Z,2.33
2023-05-24T04:05:27.303Z,2.47
2023-05-24T04:07:54.608Z,2.50
2023-05-24T04:10:24.987Z,2.30
2023-05-24T04:12:52.157Z,2.60
2023-05-24T04:15:19.258Z,2.45
2023-05-24T04:17:47.390Z,2.65
2023-05-24T04:20:16.217Z,2.90
2023-05-24T04:22:44.559Z,2.05
2023-05-24T04:25:12.350Z,3.20
2023-05-24T04:27:40.089Z,2.67
2023-05-24T04:30:09.497Z,2.63
2023-05-24T04:32:37.032Z,3.30
2023-05-24T04:35:05.709Z,2.75
2023-05-24T04:37:33.802Z,3.00
2023-05-24T04:40:00.904Z,2.53
2023-05-24T04:42:32.259Z,2.75
2023-05-24T04:44:59.652Z,2.80
2023-05-24T04:47:26.937Z,2.85
2023-05-24T04:49:54.560Z,2.70
2023-05-24T04:52:21.741Z,2.40
2023-05-24T04:54:50.003Z,3.00
2023-05-24T04:57:17.527Z,2.75
2023-05-24T04:59:47.344Z,2.38
2023-05-24T05:02:14.496Z,2.25
2023-05-24T05:04:41.564Z,2.45
2023-05-24T05:07:08.952Z,2.22
2023-05-24T05:09:36.008Z,2.65
2023-05-24T05:12:03.924Z,2.55
2023-05-24T05:14:30.967Z,2.85
2023-05-24T05:16:59.160Z,2.45
2023-05-24T05:19:26.252Z,2.60
2023-05-24T05:21:53.353Z,2.95
2023-05-24T05:24:20.592Z,3.65
2023-05-24T05:26:47.857Z,2.90
2023-05-24T05:29:14.921Z,2.13
2023-05-24T05:31:42.058Z,2.80
2023-05-24T05:34:10.176Z,2.28
2023-05-24T05:36:42.676Z,2.20
2023-05-24T05:39:09.997Z,2.15
2023-05-24T05:41:39.165Z,2.60
2023-05-24T05:44:06.855Z,2.70
2023-05-24T05:46:34.006Z,2.40
2023-05-24T05:49:01.198Z,2.80
2023-05-24T05:51:28.365Z,2.80
2023-05-24T05:53:55.618Z,2.97
2023-05-24T05:56:22.820Z,3.25
2023-05-24T05:58:52.563Z,3.58
2023-05-24T06:01:19.789Z,6.40
2023-05-24T06:03:47.031Z,3.28
2023-05-24T06:06:14.373Z,4.13
2023-05-24T06:08:42.000Z,4.03
2023-05-24T06:11:09.192Z,3.00
2023-05-24T06:13:36.366Z,3.00
2023-05-24T06:16:03.499Z,3.10
2023-05-24T06:18:32.637Z,3.67
2023-05-24T06:20:59.763Z,2.85
2023-05-24T06:23:26.843Z,3.20
2023-05-24T06:25:53.983Z,3.00
2023-05-24T06:28:21.127Z,4.35
2023-05-24T06:30:48.406Z,3.22
2023-05-24T06:33:16.138Z,2.97
2023-05-24T06:35:43.346Z,2.92
2023-05-24T06:38:10.588Z,3.17
2023-05-24T06:40:37.694Z,3.05
2023-05-24T06:43:05.092Z,3.50
2023-05-24T06:45:32.346Z,3.45
2023-05-24T06:47:59.595Z,3.63
2023-05-24T06:50:27.513Z,3.13
2023-05-24T06:52:54.639Z,4.18
2023-05-24T06:55:21.745Z,3.83
2023-05-24T06:57:48.870Z,3.47
2023-05-24T07:00:16.905Z,5.07
2023-05-24T07:02:44.224Z,3.55
2023-05-24T07:05:14.155Z,3.58
2023-05-24T07:07:42.478Z,4.15
2023-05-24T07:10:11.181Z,3.80
2023-05-24T07:12:38.927Z,3.72
2023-05-24T07:15:07.346Z,5.20
2023-05-24T07:17:34.690Z,4.20
2023-05-24T07:20:02.531Z,4.30
2023-05-24T07:22:31.730Z,4.10
2023-05-24T07:24:58.905Z,4.40
2023-05-24T07:27:25.982Z,4.70
2023-05-24T07:29:53.087Z,4.47
2023-05-24T07:32:20.415Z,4.18
2023-05-24T07:34:47.524Z,3.95
2023-05-24T07:37:14.670Z,4.93
2023-05-24T07:39:41.808Z,5.05
2023-05-24T07:42:08.921Z,5.20
2023-05-24T07:44:36.285Z,3.88
2023-05-24T07:47:03.435Z,3.90
2023-05-24T07:49:30.639Z,4.53
2023-05-24T07:51:59.654Z,4.22
2023-05-24T07:54:26.842Z,4.38
2023-05-24T07:56:54.021Z,4.65
2023-05-24T07:59:21.966Z,4.80
2023-05-24T08:01:49.101Z,4.53
2023-05-24T08:04:16.386Z,4.35
2023-05-24T08:06:43.518Z,5.00
2023-05-24T08:09:10.750Z,4.05
2023-05-24T08:11:37.868Z,4.85
2023-05-24T08:14:04.949Z,5.80
2023-05-24T08:16:32.257Z,5.07
2023-05-24T08:18:59.554Z,4.68
2023-05-24T08:21:27.871Z,5.78
2023-05-24T08:23:55.294Z,4.97
2023-05-24T08:26:22.619Z,4.47
2023-05-24T08:28:49.918Z,5.15
2023-05-24T08:31:17.233Z,4.18
2023-05-24T08:33:44.860Z,4.47
2023-05-24T08:36:12.316Z,4.50
2023-05-24T08:38:42.426Z,4.53
2023-05-24T08:41:11.881Z,4.32
2023-05-24T08:43:39.326Z,4.65
2023-05-24T08:46:07.743Z,4.38
2023-05-24T08:48:43.281Z,4.38
2023-05-24T08:51:11.194Z,4.43
2023-05-24T08:53:39.867Z,4.60
2023-05-24T08:56:10.476Z,4.93
2023-05-24T08:58:40.617Z,4.57
2023-05-24T09:01:08.011Z,4.85
2023-05-24T09:03:37.163Z,4.55
2023-05-24T09:06:04.811Z,4.95
2023-05-24T09:08:35.293Z,3.88
2023-05-24T09:11:03.732Z,4.40
2023-05-24T09:13:32.180Z,4.60
2023-05-24T09:16:02.847Z,5.05
2023-05-24T09:18:30.069Z,5.18
2023-05-24T09:20:57.307Z,4.00
2023-05-24T09:23:27.085Z,5.32
2023-05-24T09:25:54.314Z,4.30
2023-05-24T09:28:22.036Z,4.45
2023-05-24T09:31:06.356Z,4.40
2023-05-24T09:33:36.251Z,4.47
2023-05-24T09:36:05.597Z,4.13
2023-05-24T09:38:33.686Z,3.97
2023-05-24T09:41:06.594Z,4.43
2023-05-24T09:43:46.505Z,4.30
2023-05-24T09:46:18.876Z,4.57
2023-05-24T09:49:04.130Z,4.13
2023-05-24T09:51:31.357Z,4.15
2023-05-24T09:54:01.536Z,4.22
2023-05-24T09:56:29.943Z,4.93
2023-05-24T09:58:58.184Z,5.07
2023-05-24T10:01:27.026Z,4.30
2023-05-24T10:03:55.992Z,5.00
2023-05-24T10:06:24.185Z,5.35
2023-05-24T10:08:52.318Z,4.13
2023-05-24T10:11:19.496Z,4.00
2023-05-24T10:13:47.966Z,4.18
2023-05-24T10:16:15.926Z,4.00
2023-05-24T10:18:43.106Z,4.40
2023-05-24T10:21:11.472Z,4.75
2023-05-24T10:23:39.864Z,4.25
2023-05-24T10:26:11.361Z,4.63
2023-05-24T10:28:44.821Z,4.28
2023-05-24T10:31:17.493Z,4.85
2023-05-24T10:33:48.488Z,5.43
2023-05-24T10:36:16.660Z,4.68
2023-05-24T10:38:46.367Z,4.72
2023-05-24T10:41:14.149Z,4.75
2023-05-24T10:43:56.808Z,4.38
2023-05-24T10:46:33.494Z,4.70
2023-05-24T10:49:02.771Z,4.13
2023-05-24T10:51:38.595Z,4.10
2023-05-24T10:54:19.211Z,4.40
2023-05-24T10:56:50.876Z,4.15
2023-05-24T10:59:39.817Z,5.28
2023-05-24T11:02:15.216Z,5.10
2023-05-24T11:04:49.541Z,5.47
2023-05-24T11:07:19.442Z,4.65
2023-05-24T11:09:53.091Z,4.10
2023-05-24T11:12:23.840Z,3.63
2023-05-24T11:14:53.237Z,4.13
2023-05-24T11:17:24.216Z,4.43
2023-05-24T11:19:53.652Z,4.70
2023-05-24T11:22:22.563Z,5.30
2023-05-24T11:24:50.119Z,4.78
2023-05-24T11:27:17.375Z,5.60
2023-05-24T11:29:46.794Z,4.53
2023-05-24T11:32:19.118Z,4.47
2023-05-24T11:34:49.943Z,4.82
2023-05-24T11:37:18.775Z,5.88
2023-05-24T11:39:54.353Z,6.35
2023-05-24T11:42:23.579Z,5.97
2023-05-24T11:44:50.797Z,4.03
2023-05-24T11:47:20.912Z,4.53
2023-05-24T11:49:52.357Z,3.55
2023-05-24T11:52:19.618Z,3.88
2023-05-24T11:54:46.863Z,4.30
2023-05-24T11:57:14.565Z,4.07
2023-05-24T11:59:42.030Z,4.13
2023-05-24T12:02:09.261Z,4.50
2023-05-24T12:04:36.600Z,4.57
2023-05-24T12:07:03.824Z,4.60
2023-05-24T12:09:31.014Z,3.95
2023-05-24T12:11:58.824Z,4.38
2023-05-24T12:14:31.367Z,4.20
2023-05-24T12:16:59.332Z,4.28
2023-05-24T12:19:33.972Z,4.65
2023-05-24T12:22:05.361Z,3.55
2023-05-24T12:24:32.925Z,4.60
2023-05-24T12:27:02.716Z,4.05
2023-05-24T12:29:38.698Z,4.13
2023-05-24T12:32:13.661Z,3.70
2023-05-24T12:34:42.618Z,4.78
2023-05-24T12:37:15.565Z,3.28
2023-05-24T12:39:44.516Z,3.63
2023-05-24T12:42:30.586Z,3.28
2023-05-24T12:44:57.689Z,3.58
2023-05-24T12:47:24.981Z,4.30
2023-05-24T12:49:53.232Z,3.80
2023-05-24T12:52:20.434Z,3.67
2023-05-24T12:54:47.585Z,4.43
2023-05-24T12:57:22.792Z,3.42
2023-05-24T12:59:50.403Z,3.92
2023-05-24T13:02:17.473Z,4.07
2023-05-24T13:05:01.621Z,3.50
2023-05-24T13:07:28.797Z,4.10
2023-05-24T13:09:55.992Z,3.65
2023-05-24T13:12:23.156Z,4.22
2023-05-24T13:14:52.696Z,3.53
2023-05-24T13:17:20.627Z,3.47
2023-05-24T13:19:47.830Z,3.50
2023-05-24T13:22:14.972Z,3.95
2023-05-24T13:24:42.360Z,3.55
2023-05-24T13:27:09.789Z,4.13
2023-05-24T13:29:45.614Z,3.40
2023-05-24T13:32:20.079Z,3.22
2023-05-24T13:34:47.287Z,3.17
2023-05-24T13:37:16.043Z,3.10
2023-05-24T13:39:43.363Z,3.15
2023-05-24T13:42:10.793Z,3.35
2023-05-24T13:44:38.115Z,3.08
2023-05-24T13:47:06.407Z,3.38
2023-05-24T13:49:34.100Z,3.38
2023-05-24T13:52:01.576Z,3.13
2023-05-24T13:54:28.767Z,4.43
2023-05-24T13:56:57.769Z,3.65
2023-05-24T13:59:24.969Z,3.10
2023-05-24T14:01:52.139Z,3.22
2023-05-24T14:04:19.869Z,3.80
2023-05-24T14:06:46.987Z,2.78
2023-05-24T14:09:14.540Z,3.05
2023-05-24T14:11:41.794Z,3.63
2023-05-24T14:16:38.955Z,3.35
2023-05-24T14:19:07.380Z,3.10
2023-05-24T14:21:34.637Z,3.13
2023-05-24T14:24:01.860Z,2.65
2023-05-24T14:26:28.995Z,2.67
2023-05-24T14:28:57.083Z,3.15
2023-05-24T14:31:24.829Z,2.97
2023-05-24T14:33:52.036Z,2.90
2023-05-24T14:36:19.447Z,2.70
2023-05-24T14:38:46.870Z,2.58
2023-05-24T14:41:14.046Z,3.42
2023-05-24T14:43:42.080Z,2.65
2023-05-24T14:46:09.721Z,2.70
2023-05-24T14:48:37.476Z,2.95
2023-05-24T14:51:04.698Z,3.60
2023-05-24T14:53:31.989Z,2.90
2023-05-24T14:55:59.324Z,3.10
2023-05-24T14:58:27.303Z,2.88
2023-05-24T15:00:54.399Z,2.90
2023-05-24T15:03:24.372Z,2.75
2023-05-24T15:05:52.619Z,3.50
2023-05-24T15:08:19.968Z,2.92
2023-05-24T15:10:47.064Z,2.70
2023-05-24T15:13:14.246Z,2.92
2023-05-24T15:15:43.241Z,3.08
2023-05-24T15:18:10.667Z,3.08
2023-05-24T15:20:38.014Z,4.22
2023-05-24T15:23:05.304Z,3.38
2023-05-24T15:25:32.360Z,3.85
2023-05-24T15:27:59.583Z,3.15
2023-05-24T15:30:26.748Z,2.97
2023-05-24T15:32:53.955Z,3.10
2023-05-24T15:35:21.783Z,3.85
2023-05-24T15:37:48.874Z,3.20
2023-05-24T15:40:16.320Z,4.30
2023-05-24T15:42:44.014Z,3.58
2023-05-24T15:45:11.882Z,3.22
2023-05-24T15:47:40.514Z,2.70
2023-05-24T15:50:10.664Z,3.00
2023-05-24T15:52:37.916Z,3.95
2023-05-24T15:55:05.532Z,3.05
2023-05-24T15:57:32.727Z,3.05
2023-05-24T16:00:00.008Z,3.30
2023-05-24T16:02:27.398Z,2.95
2023-05-24T16:04:55.669Z,3.20
2023-05-24T16:07:23.249Z,3.30
2023-05-24T16:09:53.163Z,2.70
2023-05-24T16:12:20.299Z,3.80
2023-05-24T16:14:47.505Z,3.00
2023-05-24T16:17:17.433Z,3.33
2023-05-24T16:19:46.561Z,2.78
2023-05-24T16:22:14.639Z,3.33
2023-05-24T16:24:42.073Z,3.60
2023-05-24T16:27:09.557Z,2.97
2023-05-24T16:29:37.300Z,2.97
2023-05-24T16:32:04.938Z,2.97
2023-05-24T16:34:38.761Z,3.92
2023-05-24T16:37:13.302Z,2.80
2023-05-24T16:39:40.743Z,3.20
2023-05-24T16:42:08.560Z,3.00
2023-05-24T16:44:35.747Z,3.03
2023-05-24T16:47:02.814Z,2.97
2023-05-24T16:49:30.102Z,3.08
2023-05-24T16:51:57.560Z,3.72
2023-05-24T16:54:24.641Z,2.78
2023-05-24T16:56:55.508Z,3.65
2023-05-24T16:59:23.306Z,3.47
2023-05-24T17:01:52.029Z,3.20
2023-05-24T17:04:19.590Z,2.90
2023-05-24T17:06:46.769Z,4.07
2023-05-24T17:09:13.930Z,3.33
2023-05-24T17:11:41.117Z,3.35
2023-05-24T17:14:08.310Z,4.25
2023-05-24T17:16:35.894Z,3.35
2023-05-24T17:19:03.689Z,3.35
2023-05-24T17:21:31.589Z,3.25
2023-05-24T17:23:59.855Z,3.50
2023-05-24T17:26:27.690Z,3.33
2023-05-24T17:28:54.756Z,3.15
2023-05-24T17:31:22.076Z,3.10
2023-05-24T17:33:49.508Z,3.60
2023-05-24T17:36:16.800Z,2.90
2023-05-24T17:38:43.925Z,2.70
2023-05-24T17:41:11.098Z,3.00
2023-05-24T17:43:40.205Z,2.80
2023-05-24T17:46:07.799Z,3.08
2023-05-24T17:48:39.336Z,3.33
2023-05-24T17:51:08.354Z,3.10
2023-05-24T17:53:36.961Z,3.10
2023-05-24T17:56:05.396Z,3.33
2023-05-24T17:58:36.646Z,3.50
2023-05-24T18:01:08.556Z,3.45
2023-05-24T18:03:37.405Z,3.65
2023-05-24T18:06:06.996Z,3.15
2023-05-24T18:08:37.339Z,3.17
2023-05-24T18:11:08.649Z,2.25
2023-05-24T18:13:43.307Z,2.65
2023-05-24T18:16:11.556Z,3.22
2023-05-24T18:18:38.943Z,2.95
2023-05-24T18:21:06.390Z,2.95
2023-05-24T18:23:37.692Z,3.22
2023-05-24T18:26:09.410Z,2.90
2023-05-24T18:28:37.738Z,2.90
2023-05-24T18:31:08.763Z,3.13
2023-05-24T18:33:36.728Z,2.80
2023-05-24T18:36:05.564Z,2.80
2023-05-24T18:38:36.904Z,2.63
2023-05-24T18:41:06.483Z,2.75
2023-05-24T18:43:33.905Z,2.70
2023-05-24T18:46:01.680Z,3.05
2023-05-24T18:48:28.827Z,3.10
2023-05-24T18:50:56.047Z,3.13
2023-05-24T18:53:23.185Z,2.88
2023-05-24T18:55:50.291Z,2.85
2023-05-24T18:58:17.386Z,2.88
2023-05-24T19:00:44.548Z,3.45
2023-05-24T19:03:12.232Z,2.78
2023-05-24T19:05:42.560Z,3.30
2023-05-24T19:08:11.036Z,2.90
2023-05-24T19:10:38.116Z,3.00
2023-05-24T19:13:06.647Z,3.35
2023-05-24T19:15:35.642Z,3.25
2023-05-24T19:18:03.452Z,3.13
2023-05-24T19:20:30.662Z,3.65
2023-05-24T19:22:57.918Z,3.00
2023-05-24T19:25:25.057Z,3.40
2023-05-24T19:27:59.060Z,3.15
2023-05-24T19:30:27.481Z,3.78
2023-05-24T19:32:54.730Z,3.38
2023-05-24T19:35:21.947Z,3.72
2023-05-24T19:37:49.009Z,3.40
2023-05-24T19:40:16.326Z,3.33
2023-05-24T19:42:43.497Z,3.65
2023-05-24T19:45:12.125Z,3.70
2023-05-24T19:47:39.909Z,3.30
2023-05-24T19:50:07.882Z,3.65
2023-05-24T19:52:35.168Z,3.85
2023-05-24T19:55:02.298Z,4.30
2023-05-24T19:57:29.438Z,4.65
2023-05-24T19:59:57.577Z,3.67
2023-05-24T20:02:24.830Z,4.07
2023-05-24T20:04:51.874Z,3.80
2023-05-24T20:07:18.992Z,4.50
2023-05-24T20:09:46.052Z,4.70
2023-05-24T20:12:13.203Z,5.00
2023-05-24T20:14:40.258Z,4.38
2023-05-24T20:17:07.419Z,4.88
2023-05-24T20:19:34.497Z,4.35
2023-05-24T20:22:01.562Z,4.57
2023-05-24T20:24:28.676Z,4.35
2023-05-24T20:26:55.837Z,4.60
2023-05-24T20:29:22.903Z,4.10
2023-05-24T20:31:50.063Z,3.63
2023-05-24T20:34:17.185Z,4.10
2023-05-24T20:36:44.231Z,4.22
2023-05-24T20:39:11.754Z,4.90
2023-05-24T20:41:38.805Z,3.90
2023-05-24T20:44:05.957Z,3.70
2023-05-24T20:46:33.109Z,4.75
2023-05-24T20:49:00.522Z,6.60
2023-05-24T20:51:27.554Z,7.82
2023-05-24T20:53:54.820Z,6.13
2023-05-24T20:56:23.312Z,5.57
2023-05-24T20:58:53.247Z,4.55
2023-05-24T21:01:21.266Z,4.95
2023-05-24T21:03:48.491Z,5.47
2023-05-24T21:06:15.633Z,4.75
2023-05-24T21:08:43.495Z,5.45
2023-05-24T21:11:10.725Z,5.40
2023-05-24T21:13:37.894Z,5.93
2023-05-24T21:16:05.206Z,4.85
2023-05-24T21:18:33.549Z,5.20
2023-05-24T21:21:00.793Z,5.55
2023-05-24T21:23:28.142Z,5.53
2023-05-24T21:25:55.212Z,5.05
2023-05-24T21:28:22.343Z,6.05
2023-05-24T21:30:49.476Z,5.88
2023-05-24T21:33:16.914Z,6.85
2023-05-24T21:35:44.252Z,6.25
2023-05-24T21:38:11.628Z,6.05
2023-05-24T21:40:38.730Z,6.53
2023-05-24T21:43:05.912Z,6.10
2023-05-24T21:45:32.984Z,5.88
2023-05-24T21:48:00.102Z,7.18
2023-05-24T21:50:27.234Z,7.10
2023-05-24T21:52:54.286Z,6.45
2023-05-24T21:55:21.379Z,6.22
2023-05-24T21:57:48.563Z,6.63
2023-05-24T22:00:17.229Z,6.07
2023-05-24T22:02:44.469Z,6.07
2023-05-24T22:05:11.778Z,6.13
2023-05-24T22:07:38.991Z,7.57
2023-05-24T22:10:07.470Z,6.50
2023-05-24T22:12:35.491Z,6.65
2023-05-24T22:15:02.844Z,7.57
2023-05-24T22:17:32.957Z,6.47
2023-05-24T22:20:04.903Z,5.97
2023-05-24T22:22:32.386Z,6.13
2023-05-24T22:25:02.302Z,6.65
2023-05-24T22:27:30.360Z,6.43
2023-05-24T22:29:57.428Z,6.78
2023-05-24T22:32:24.561Z,6.72
2023-05-24T22:34:51.654Z,6.40
2023-05-24T22:37:18.833Z,7.05
2023-05-24T22:39:46.115Z,7.75
2023-05-24T22:42:13.246Z,7.65
2023-05-24T22:44:40.290Z,8.73
2023-05-24T22:47:08.261Z,8.48
2023-05-24T22:49:35.901Z,7.13
2023-05-24T22:52:03.062Z,8.60
2023-05-24T22:54:31.772Z,8.23
2023-05-24T22:56:59.071Z,9.25
2023-05-24T22:59:26.164Z,7.55
2023-05-24T23:01:53.329Z,8.60
2023-05-24T23:04:21.860Z,8.02
2023-05-24T23:06:53.472Z,7.28
2023-05-24T23:09:34.943Z,8.90
2023-05-24T23:12:08.082Z,8.30
2023-05-24T23:14:41.545Z,8.00
2023-05-24T23:17:13.609Z,7.38
2023-05-24T23:19:44.156Z,7.38
2023-05-24T23:22:12.351Z,7.00
2023-05-24T23:24:42.463Z,7.65
2023-05-24T23:27:09.866Z,7.78
2023-05-24T23:29:39.210Z,8.27
2023-05-24T23:32:08.061Z,7.13
2023-05-24T23:34:35.421Z,9.15
2023-05-24T23:37:04.726Z,7.32
2023-05-24T23:39:31.945Z,7.60
2023-05-24T23:41:59.045Z,7.78
2023-05-24T23:44:26.530Z,8.18
2023-05-24T23:46:53.960Z,7.70
2023-05-24T23:49:21.193Z,8.18
2023-05-24T23:51:48.319Z,9.23
2023-05-24T23:54:15.889Z,7.88
2023-05-24T23:56:42.987Z,7.90
2023-05-24T23:59:11.200Z,7.93
